Meteo Giornale » Osservazioni meteo Italia » Napoli-Capodichino

ore: 21:50 - Osservazioni Meteo Napoli-Capodichino
Lat. 40° 51' N Lon. 14° 18' E Alt. 88 metri s.l.m.

sereno Europe/Rome

11 °C

Sereno

Temp. 24 Ore

6 °C

18 °C

Nord

1.8 Km/h

Dew point 9 °C

Umidità 87 %

Visibilità  7 Km

Il sole sorge alle ore 07:02

Il sole tramonta alle ore 16:38

Data e Ora Cielo e Fenomeni T °C DP °C Um. % Pres. hPa Vis. km Vento km/h
Oggi h: 21:50 sereno Sereno 11 9 87 1020 7 N 1.8
Oggi h: 21:20 sereno Sereno 10 9 93 1020 7 N 3.7
Oggi h: 20:50 sereno Sereno 10 8 87 1020 8 N 3.7
Oggi h: 20:20 sereno Sereno 11 9 87 1020 8 N 3.7
Oggi h: 19:50 sereno Sereno 11 9 87 1020 10 N 3.7
Oggi h: 19:20 sereno Sereno 11 9 87 1020 10 N 1.8
Oggi h: 18:50 sereno Sereno 11 9 87 1020 10 N 1.8
Oggi h: 18:20 sereno Sereno 13 10 81 1020 10 N 1.8
Oggi h: 17:50 sereno Sereno 11 8 81 1020 8 N 1.8
Oggi h: 17:20 sereno Sereno 13 9 76 1020 8 N 1.8
Oggi h: 16:50 poco_nuvoloso Poco Nuvoloso 15 10 72 1020 10 N 3.7
Oggi h: 15:50 poco_nuvoloso Poco Nuvoloso 17 10 63 1020 10 N 3.7
Oggi h: 15:20 poco_nuvoloso Poco Nuvoloso 17 10 63 1020 10 S/SO 7.4
Oggi h: 14:50 poco_nuvoloso Poco Nuvoloso 17 9 59 1020 10 S/SO 9.3
Oggi h: 14:20 poco_nuvoloso Poco Nuvoloso 18 10 59 1020 10 S 7.4
Oggi h: 13:50 poco_nuvoloso Poco Nuvoloso 18 9 55 1020 10 S/SO 7.4
Oggi h: 13:20 poco_nuvoloso Poco Nuvoloso 18 8 51 1020 10 N 3.7
Oggi h: 12:50 poco_nuvoloso Poco Nuvoloso 18 9 55 1021 10 N 5.5
Oggi h: 12:20 poco_nuvoloso Poco Nuvoloso 17 9 59 1021 10 N 3.7
Oggi h: 11:50 poco_nuvoloso Poco Nuvoloso 17 9 59 1021 10 N 3.7
Oggi h: 11:20 sereno Sereno 16 9 63 1022 10 N 3.7
Oggi h: 10:50 sereno Sereno 15 8 62 1022 10 N 3.7
Oggi h: 10:20 sereno Sereno 14 9 71 1022 10 N 3.7
Oggi h: 09:50 sereno Sereno 13 8 71 1022 10 N 3.7
Oggi h: 09:20 sereno Sereno 11 8 81 1022 10 N 5.5
Oggi h: 08:50 sereno Sereno 10 7 81 1022 10 N 3.7
Oggi h: 07:20 sereno Sereno 6 5 93 1021 10 N 5.5
Oggi h: 06:50 sereno Sereno 6 5 93 1021 10 N 5.5
Oggi h: 06:20 sereno Sereno 8 6 87 1021 10 N 5.5
Oggi h: 05:50 sereno Sereno 7 5 87 1021 10 N 5.5
Oggi h: 05:20 sereno Sereno 7 5 87 1021 10 N 3.7
Oggi h: 04:50 sereno Sereno 7 6 93 1021 10 N 3.7
Oggi h: 03:50 sereno Sereno 8 6 87 1022 10 N 5.5
Oggi h: 03:20 sereno Sereno 6 4 86 1022 10 N 5.5
Oggi h: 02:50 sereno Sereno 8 6 87 1022 10 N 5.5
Oggi h: 02:20 sereno Sereno 8 7 93 1022 8 N 5.5
Oggi h: 01:50 sereno Sereno 8 6 87 1022 8 N 5.5
Oggi h: 01:20 sereno Sereno 9 7 87 1022 8 N 5.5
Oggi h: 00:50 sereno Sereno 8 7 93 1022 6 N 5.5
Ieri h: 23:50 sereno Sereno 9 8 93 1022 7 N 3.7
Ieri h: 23:20 sereno Sereno 9 7 87 1023 7 N 5.5
Ieri h: 22:50 sereno Sereno 8 7 93 1022 8 N 5.5